Time;durP1;ratioP1;P1;durP2;ratioP2;P2;SDS_P1;SDS_P2;PMS_P1;PMS_P2;Temp;Humidity;BMP_temperature;BMP_pressure;BME280_temperature;BME280_humidity;BME280_pressure;Samples;Min_cycle;Max_cycle;Signal;HPM_P1;HPM_P2
2021/01/27 00:01:29;;;;;;;6.13;4.83;;;;;;;-0.66;100.00;151202.88;5054141;28;20509;-86
2021/01/27 00:04:04;;;;;;;6.40;4.83;;;;;;;-0.69;100.00;151196.47;5045132;28;20456;-86
2021/01/27 00:06:40;;;;;;;5.47;4.90;;;;;;;-0.68;100.00;151199.06;5021015;28;20443;-86
2021/01/27 00:09:16;;;;;;;5.83;4.83;;;;;;;-0.64;100.00;151208.06;5037418;28;20452;-87
2021/01/27 00:11:52;;;;;;;7.50;5.33;;;;;;;-0.59;100.00;151220.88;5048022;28;20442;-87
2021/01/27 00:14:28;;;;;;;6.63;5.43;;;;;;;-0.54;100.00;151233.69;5053326;28;20449;-87
2021/01/27 00:17:03;;;;;;;8.20;6.13;;;;;;;-0.54;100.00;151233.69;5053353;28;20503;-87
2021/01/27 00:19:38;;;;;;;6.83;5.33;;;;;;;-0.53;100.00;151236.22;5070359;28;20452;-87
2021/01/27 00:22:13;;;;;;;7.00;5.43;;;;;;;-0.56;100.00;151228.59;5037929;28;20438;-87
2021/01/27 00:24:50;;;;;;;8.80;6.27;;;;;;;-0.54;100.00;151233.69;5053251;28;20490;-87
2021/01/27 00:27:25;;;;;;;8.13;5.43;;;;;;;-0.54;100.00;151233.69;5053296;28;20439;-86
2021/01/27 00:30:00;;;;;;;7.00;5.30;;;;;;;-0.53;100.00;151236.22;5037972;28;20924;-87
2021/01/27 00:32:35;;;;;;;7.13;5.93;;;;;;;-0.52;100.00;151237.53;5052901;28;20440;-87
2021/01/27 00:35:12;;;;;;;7.40;5.90;;;;;;;-0.54;100.00;151233.69;5037643;28;20493;-87
2021/01/27 00:37:47;;;;;;;8.00;5.83;;;;;;;-0.49;100.00;151245.22;5053062;28;20470;-87
2021/01/27 00:40:25;;;;;;;7.37;5.70;;;;;;;-0.53;100.00;151236.22;5053327;28;20438;-87
2021/01/27 00:43:00;;;;;;;8.60;6.60;;;;;;;-0.55;100.00;151229.81;5052550;28;20451;-87
2021/01/27 00:45:36;;;;;;;7.43;6.00;;;;;;;-0.53;100.00;151236.22;5038002;28;20461;-87
2021/01/27 00:48:12;;;;;;;7.30;6.40;;;;;;;-0.54;100.00;151232.41;5037310;28;20439;-87
2021/01/27 00:50:47;;;;;;;11.87;6.00;;;;;;;-0.50;100.00;151243.94;5053179;28;20521;-87
2021/01/27 00:53:23;;;;;;;8.37;5.70;;;;;;;-0.56;100.00;151228.59;5022250;28;20809;-87
2021/01/27 00:55:59;;;;;;;7.83;5.90;;;;;;;-0.59;100.00;151219.59;5052711;28;20983;-87
2021/01/27 00:58:35;;;;;;;14.00;6.30;;;;;;;-0.59;100.00;151219.59;5037090;28;20966;-87
2021/01/27 01:01:18;;;;;;;13.20;6.20;;;;;;;-0.58;100.00;151222.16;5037611;28;20443;-87
2021/01/27 01:03:54;;;;;;;9.43;6.50;;;;;;;-0.58;100.00;151223.41;5027050;28;20449;-87
2021/01/27 01:06:29;;;;;;;8.80;5.93;;;;;;;-0.63;100.00;151210.59;5052515;28;20443;-87
2021/01/27 01:09:04;;;;;;;9.93;6.20;;;;;;;-0.62;100.00;151214.47;5054070;28;20443;-87
2021/01/27 01:11:41;;;;;;;10.80;6.33;;;;;;;-0.55;100.00;151229.81;5052585;28;20454;-87
2021/01/27 01:14:16;;;;;;;7.40;5.87;;;;;;;-0.64;100.00;151208.06;5036775;28;20450;-87
2021/01/27 01:16:51;;;;;;;9.57;6.73;;;;;;;-0.55;100.00;151231.13;5051779;28;20506;-87
2021/01/27 01:19:27;;;;;;;8.40;6.77;;;;;;;-0.55;100.00;151229.81;5052485;28;20464;-87
2021/01/27 01:22:02;;;;;;;8.67;5.30;;;;;;;-0.49;100.00;151246.53;5052215;28;20533;-87
2021/01/27 01:24:37;;;;;;;9.13;6.00;;;;;;;-0.47;100.00;151251.63;5036749;28;20431;-87
2021/01/27 01:27:13;;;;;;;7.50;5.97;;;;;;;-0.44;100.00;151258.03;5052389;28;20443;-87
2021/01/27 01:29:48;;;;;;;6.00;5.20;;;;;;;-0.45;100.00;151255.50;5036981;28;20439;-87
2021/01/27 01:32:24;;;;;;;8.30;6.07;;;;;;;-0.45;100.00;151255.50;5036704;28;20536;-87
2021/01/27 01:34:59;;;;;;;7.23;5.90;;;;;;;-0.49;100.00;151246.53;5051953;28;20443;-87
2021/01/27 01:37:36;;;;;;;10.17;7.00;;;;;;;-0.53;100.00;151235.00;5052171;28;20474;-87
2021/01/27 01:40:13;;;;;;;8.37;6.70;;;;;;;-0.49;100.00;151245.22;5036865;28;20777;-87
2021/01/27 01:42:59;;;;;;;6.20;5.60;;;;;;;-0.43;100.00;151260.63;5051834;28;20454;-87
2021/01/27 01:45:38;;;;;;;7.70;6.20;;;;;;;-0.50;100.00;151243.94;5039615;28;20505;-86
2021/01/27 01:48:19;;;;;;;8.03;6.53;;;;;;;-0.49;100.00;151246.53;5040769;28;20535;-88
2021/01/27 01:50:59;;;;;;;10.10;6.30;;;;;;;-0.50;100.00;151242.69;5052627;28;20447;-87
2021/01/27 01:53:34;;;;;;;6.90;6.00;;;;;;;-0.55;100.00;151229.81;5035178;28;20448;-87
2021/01/27 01:56:13;;;;;;;8.50;6.00;;;;;;;-0.58;100.00;151223.41;5036498;28;20482;-87
2021/01/27 01:58:52;;;;;;;9.00;6.30;;;;;;;-0.55;100.00;151231.13;5016683;28;20992;-87
2021/01/27 02:01:28;;;;;;;8.10;5.30;;;;;;;-0.52;100.00;151238.81;5033161;28;20919;-87
2021/01/27 02:04:03;;;;;;;7.23;5.57;;;;;;;-0.51;100.00;151241.41;5035911;28;20434;-86
2021/01/27 02:06:39;;;;;;;7.00;5.67;;;;;;;-0.57;100.00;151226.00;5020389;28;20450;-87
2021/01/27 02:09:14;;;;;;;8.77;5.67;;;;;;;-0.54;100.00;151233.69;5035746;28;20439;-86
2021/01/27 02:12:01;;;;;;;7.60;5.90;;;;;;;-0.54;100.00;151233.69;5047515;28;20471;-87
2021/01/27 02:14:56;;;;;;;6.07;5.10;;;;;;;-0.52;100.00;151238.81;5016229;28;20440;-89
2021/01/27 02:17:36;;;;;;;7.30;5.80;;;;;;;-0.50;100.00;151243.94;5044705;28;20475;-86
2021/01/27 02:20:48;;;;;;;7.60;6.10;;;;;;;-0.53;100.00;151236.22;5053593;28;20430;-87
2021/01/27 02:24:08;;;;;;;8.33;6.00;;;;;;;-0.51;100.00;151240.09;5050921;28;20813;-86
2021/01/27 02:26:55;;;;;;;6.83;5.63;;;;;;;-0.57;100.00;151224.69;5050242;28;20464;-88
2021/01/27 02:29:51;;;;;;;8.70;6.07;;;;;;;-0.62;100.00;151214.47;5039973;28;20428;-88
2021/01/27 02:32:52;;;;;;;7.90;5.70;;;;;;;-0.59;100.00;151219.59;5040085;28;20451;-88
2021/01/27 02:35:30;;;;;;;8.73;5.93;;;;;;;-0.57;100.00;151226.00;5040246;28;20525;-88
2021/01/27 02:38:08;;;;;;;9.17;5.33;;;;;;;-0.67;100.00;151200.34;5055754;28;20469;-88
2021/01/27 02:40:49;;;;;;;5.93;5.13;;;;;;;-0.71;100.00;151191.34;5039964;28;20936;-89
2021/01/27 02:43:29;;;;;;;6.67;6.07;;;;;;;-0.69;100.00;151195.25;5032914;28;20441;-88
2021/01/27 02:46:10;;;;;;;8.60;5.93;;;;;;;-0.76;100.00;151178.53;5020418;28;20442;-89
2021/01/27 02:48:50;;;;;;;7.83;6.40;;;;;;;-0.73;100.00;151186.25;5020015;28;20995;-88
2021/01/27 02:51:29;;;;;;;8.57;6.27;;;;;;;-0.73;100.00;151184.94;5053794;28;20834;-89
2021/01/27 02:54:10;;;;;;;7.23;5.30;;;;;;;-0.78;100.00;151173.44;5039444;28;20436;-87
2021/01/27 02:56:49;;;;;;;8.77;5.30;;;;;;;-0.80;100.00;151167.00;5038877;28;20445;-88
2021/01/27 02:59:32;;;;;;;9.07;5.97;;;;;;;-0.77;100.00;151174.72;5055034;28;20427;-89
2021/01/27 03:02:10;;;;;;;7.67;5.90;;;;;;;-0.78;100.00;151172.13;5055029;28;20961;-88
2021/01/27 03:04:53;;;;;;;7.80;5.60;;;;;;;-0.77;100.00;151174.72;5039114;28;20467;-89
2021/01/27 03:07:30;;;;;;;8.70;5.77;;;;;;;-0.77;100.00;151175.97;5030043;28;20448;-88
2021/01/27 03:10:08;;;;;;;8.07;6.10;;;;;;;-0.70;100.00;151192.66;5049562;28;20440;-88
2021/01/27 03:12:46;;;;;;;10.70;6.50;;;;;;;-0.72;100.00;151188.81;5039446;28;20446;-88
2021/01/27 03:15:22;;;;;;;7.00;5.70;;;;;;;-0.76;100.00;151178.53;5054926;28;20469;-88
2021/01/27 03:17:59;;;;;;;7.77;5.87;;;;;;;-0.73;100.00;151186.25;5054783;28;20477;-88
2021/01/27 03:20:36;;;;;;;9.60;6.13;;;;;;;-0.70;100.00;151193.94;5039209;28;20443;-88
2021/01/27 03:23:17;;;;;;;7.27;5.47;;;;;;;-0.73;100.00;151184.94;5054478;28;20462;-88
2021/01/27 03:25:55;;;;;;;8.30;5.07;;;;;;;-0.73;100.00;151184.94;5054511;28;20487;-88
2021/01/27 03:28:33;;;;;;;6.13;5.20;;;;;;;-0.71;100.00;151190.06;5054634;28;20441;-88
2021/01/27 03:31:09;;;;;;;6.30;5.03;;;;;;;-0.71;100.00;151190.06;5038649;28;20552;-88
2021/01/27 03:33:48;;;;;;;6.20;4.93;;;;;;;-0.67;100.00;151200.34;5054024;28;20434;-88
2021/01/27 03:36:24;;;;;;;8.10;6.10;;;;;;;-0.71;100.00;151191.34;5038645;28;20440;-88
2021/01/27 03:39:01;;;;;;;7.53;5.80;;;;;;;-0.74;100.00;151182.38;5038155;28;20494;-88
2021/01/27 03:41:39;;;;;;;9.53;6.30;;;;;;;-0.77;100.00;151174.72;5038532;28;20558;-88
2021/01/27 03:44:19;;;;;;;7.43;5.53;;;;;;;-0.72;100.00;151187.53;5038488;28;20842;-88
2021/01/27 03:46:57;;;;;;;8.40;5.40;;;;;;;-0.65;100.00;151206.75;5038653;28;20455;-88
2021/01/27 03:49:35;;;;;;;6.70;5.67;;;;;;;-0.72;100.00;151187.53;5053667;28;20437;-88
2021/01/27 03:52:20;;;;;;;6.73;4.97;;;;;;;-0.76;100.00;151177.25;5038621;28;20448;-88
2021/01/27 03:55:01;;;;;;;7.50;5.67;;;;;;;-0.67;100.00;151200.34;5033360;28;20570;-88
2021/01/27 03:57:40;;;;;;;5.93;5.23;;;;;;;-0.63;100.00;151210.59;5037208;28;20494;-88
2021/01/27 04:00:16;;;;;;;6.33;4.83;;;;;;;-0.66;100.00;151202.88;5037789;28;20839;-88
2021/01/27 04:03:01;;;;;;;10.30;6.40;;;;;;;-0.71;100.00;151190.06;5036776;28;20435;-88
2021/01/27 04:05:37;;;;;;;7.20;5.50;;;;;;;-0.64;100.00;151208.06;5036312;28;20533;-88
2021/01/27 04:08:12;;;;;;;5.90;5.30;;;;;;;-0.67;100.00;151201.66;5021595;28;20440;-88
2021/01/27 04:10:49;;;;;;;6.77;5.70;;;;;;;-0.63;100.00;151211.88;5036936;28;20435;-88
2021/01/27 04:13:24;;;;;;;8.60;5.30;;;;;;;-0.65;100.00;151205.47;5036969;28;20446;-88
2021/01/27 04:16:00;;;;;;;5.93;5.10;;;;;;;-0.69;100.00;151195.25;5021579;28;20438;-88
2021/01/27 04:18:35;;;;;;;9.70;5.63;;;;;;;-0.67;100.00;151200.34;5020439;28;20471;-88
2021/01/27 04:21:11;;;;;;;8.33;4.70;;;;;;;-0.59;100.00;151220.88;5037500;28;20443;-88
2021/01/27 04:23:46;;;;;;;6.90;5.33;;;;;;;-0.59;100.00;151219.59;5016982;28;20928;-87
2021/01/27 04:26:22;;;;;;;8.10;5.10;;;;;;;-0.61;100.00;151215.75;5034153;28;20449;-88
2021/01/27 04:28:57;;;;;;;6.90;4.90;;;;;;;-0.61;100.00;151215.75;5037178;28;20438;-88
2021/01/27 04:31:33;;;;;;;5.43;4.30;;;;;;;-0.65;100.00;151205.47;5022698;28;20451;-88
2021/01/27 04:34:09;;;;;;;5.10;4.10;;;;;;;-0.65;100.00;151205.47;5040826;28;20430;-88
2021/01/27 04:36:44;;;;;;;6.30;4.50;;;;;;;-0.59;100.00;151219.59;5021810;28;20480;-88
2021/01/27 04:39:20;;;;;;;6.40;4.83;;;;;;;-0.63;100.00;151210.59;5020994;28;20436;-88
2021/01/27 04:41:56;;;;;;;6.90;5.07;;;;;;;-0.63;100.00;151210.59;5035874;28;20855;-88
2021/01/27 04:44:32;;;;;;;5.97;4.50;;;;;;;-0.60;100.00;151218.28;5035891;28;20423;-88
2021/01/27 04:47:11;;;;;;;6.47;4.37;;;;;;;-0.65;100.00;151206.75;5020827;28;20945;-88
2021/01/27 04:49:52;;;;;;;7.10;5.40;;;;;;;-0.63;100.00;151211.88;5021056;28;20472;-88
2021/01/27 04:52:47;;;;;;;7.17;5.40;;;;;;;-0.64;100.00;151208.06;5019192;28;20457;-88
2021/01/27 04:55:31;;;;;;;5.97;4.50;;;;;;;-0.61;100.00;151217.00;5029050;28;20474;-88
2021/01/27 04:58:16;;;;;;;7.23;5.20;;;;;;;-0.58;100.00;151223.41;5052720;28;20503;-88
2021/01/27 05:01:02;;;;;;;7.93;5.20;;;;;;;-0.60;100.00;151218.28;5052559;28;20458;-87
2021/01/27 05:03:55;;;;;;;5.77;4.60;;;;;;;-0.65;100.00;151206.75;5052394;28;20537;-87
2021/01/27 05:06:33;;;;;;;7.20;5.40;;;;;;;-0.61;100.00;151215.75;5037050;28;20841;-88
2021/01/27 05:09:12;;;;;;;6.90;5.20;;;;;;;-0.62;100.00;151214.47;5052731;28;20432;-88
2021/01/27 05:11:48;;;;;;;8.13;5.27;;;;;;;-0.63;100.00;151210.59;5048575;28;20850;-88
2021/01/27 05:14:25;;;;;;;7.00;4.77;;;;;;;-0.62;100.00;151214.47;5049267;28;20825;-87
2021/01/27 05:17:06;;;;;;;8.60;5.37;;;;;;;-0.63;100.00;151210.59;5038301;28;20811;-88
2021/01/27 05:19:43;;;;;;;7.47;4.87;;;;;;;-0.59;100.00;151219.59;5052653;28;20435;-88
2021/01/27 05:22:19;;;;;;;5.07;4.30;;;;;;;-0.59;100.00;151220.88;5047228;28;20459;-88
2021/01/27 05:24:55;;;;;;;4.40;3.73;;;;;;;-0.60;100.00;151218.28;5020414;28;20494;-88
2021/01/27 05:27:34;;;;;;;5.80;4.27;;;;;;;-0.59;100.00;151220.88;5020408;28;21158;-88
2021/01/27 05:30:19;;;;;;;5.13;4.20;;;;;;;-0.66;100.00;151202.88;5037232;28;20424;-87
2021/01/27 05:32:56;;;;;;;4.67;4.10;;;;;;;-0.63;100.00;151210.59;5036725;28;20454;-88
2021/01/27 05:35:34;;;;;;;5.23;3.80;;;;;;;-0.57;100.00;151226.00;5052430;28;20518;-88
2021/01/27 05:38:34;;;;;;;7.30;5.37;;;;;;;-0.55;100.00;151231.13;5036507;28;20464;-87
2021/01/27 05:41:16;;;;;;;6.57;3.90;;;;;;;-0.52;100.00;151237.53;5025789;28;20438;-88
2021/01/27 05:43:54;;;;;;;6.90;4.43;;;;;;;-0.66;100.00;151204.19;5032121;28;20433;-88
2021/01/27 05:46:32;;;;;;;6.57;4.70;;;;;;;-0.57;100.00;151226.00;5018571;28;20443;-88
2021/01/27 05:49:13;;;;;;;5.57;4.10;;;;;;;-0.55;100.00;151231.13;5036800;28;20440;-88
2021/01/27 05:51:48;;;;;;;6.33;4.30;;;;;;;-0.53;100.00;151236.22;5051617;28;20558;-88
2021/01/27 05:54:25;;;;;;;5.50;4.33;;;;;;;-0.51;100.00;151240.09;5051707;28;20969;-87
2021/01/27 05:57:01;;;;;;;6.47;4.80;;;;;;;-0.53;100.00;151236.22;5036434;28;20446;-88
2021/01/27 05:59:36;;;;;;;5.70;4.60;;;;;;;-0.51;100.00;151241.41;5032083;28;20449;-88
2021/01/27 06:02:14;;;;;;;6.20;4.97;;;;;;;-0.51;100.00;151240.09;5019044;28;20464;-88
2021/01/27 06:04:56;;;;;;;6.10;4.67;;;;;;;-0.45;100.00;151255.50;5040261;28;20443;-89
2021/01/27 06:07:31;;;;;;;5.53;4.60;;;;;;;-0.45;100.00;151256.75;5039823;28;20477;-88
2021/01/27 06:10:31;;;;;;;4.67;3.83;;;;;;;-0.47;100.00;151251.63;5056084;28;20434;-89
2021/01/27 06:13:16;;;;;;;4.70;4.10;;;;;;;-0.43;100.00;151261.94;5055481;28;20433;-89
2021/01/27 06:15:51;;;;;;;6.40;4.27;;;;;;;-0.33;100.00;151286.28;5038578;28;20428;-89
2021/01/27 06:18:29;;;;;;;5.90;4.23;;;;;;;-0.39;100.00;151270.88;5037645;28;20485;-87
2021/01/27 06:21:32;;;;;;;5.70;4.73;;;;;;;-0.46;100.00;151252.94;5055720;28;20482;-88
2021/01/27 06:24:30;;;;;;;6.13;4.70;;;;;;;-0.48;100.00;151247.81;5055244;28;20800;-88
2021/01/27 06:27:39;;;;;;;4.80;3.50;;;;;;;-0.39;100.00;151272.16;5053632;28;20450;-88
2021/01/27 06:30:37;;;;;;;4.90;3.97;;;;;;;-0.39;100.00;151272.16;5040331;28;20801;-87
2021/01/27 06:33:23;;;;;;;4.33;3.93;;;;;;;-0.37;100.00;151277.28;5035430;28;20442;-87
2021/01/27 06:36:09;;;;;;;5.23;3.77;;;;;;;-0.37;100.00;151277.28;5039806;28;20446;-87
2021/01/27 06:39:05;;;;;;;8.23;5.70;;;;;;;-0.39;100.00;151272.16;5055294;28;20467;-87
2021/01/27 06:42:04;;;;;;;8.47;6.07;;;;;;;-0.37;100.00;151276.03;5052774;28;20493;-87
2021/01/27 06:44:53;;;;;;;5.33;4.50;;;;;;;-0.36;100.00;151278.56;5035384;28;20954;-87
2021/01/27 06:48:02;;;;;;;6.33;4.87;;;;;;;-0.36;100.00;151279.88;5032621;28;20551;-87
2021/01/27 06:50:55;;;;;;;4.50;4.10;;;;;;;-0.34;100.00;151284.97;5040730;28;20421;-87
2021/01/27 06:54:08;;;;;;;5.30;4.50;;;;;;;-0.31;100.00;151292.69;5033501;28;20469;-89
2021/01/27 06:57:14;;;;;;;6.63;4.10;;;;;;;-0.34;100.00;151284.97;4977956;28;20440;-89
2021/01/27 07:00:17;;;;;;;5.60;4.17;;;;;;;-0.36;100.00;151279.88;5016763;28;20440;-88
2021/01/27 07:03:29;;;;;;;5.47;4.70;;;;;;;-0.37;99.97;151277.28;5024078;28;20494;-88
2021/01/27 07:06:23;;;;;;;5.03;3.77;;;;;;;-0.35;98.68;151282.44;5001940;28;20462;-88
2021/01/27 07:09:34;;;;;;;4.83;4.00;;;;;;;-0.32;100.00;151290.09;5013863;28;20519;-88
2021/01/27 07:12:20;;;;;;;4.50;3.80;;;;;;;-0.32;100.00;151290.09;5003010;28;20448;-89
2021/01/27 07:15:21;;;;;;;4.53;3.73;;;;;;;-0.28;100.00;151300.41;5017072;28;20440;-88
2021/01/27 07:18:14;;;;;;;7.07;4.10;;;;;;;-0.27;100.00;151301.69;5010538;28;20491;-88
2021/01/27 07:20:54;;;;;;;5.37;4.10;;;;;;;-0.28;100.00;151299.09;5022386;28;20523;-89
2021/01/27 07:23:36;;;;;;;7.17;4.33;;;;;;;-0.27;100.00;151301.69;5016283;28;20450;-88
2021/01/27 07:26:18;;;;;;;5.80;4.13;;;;;;;-0.25;100.00;151308.09;5006512;28;20448;-89
2021/01/27 07:28:58;;;;;;;5.73;4.00;;;;;;;-0.25;100.00;151306.81;5022455;28;20446;-89
2021/01/27 07:31:36;;;;;;;6.80;4.50;;;;;;;-0.29;100.00;151297.81;5002560;28;20442;-87
2021/01/27 07:34:16;;;;;;;5.60;4.37;;;;;;;-0.22;100.00;151315.81;5001813;28;20486;-87
2021/01/27 07:36:58;;;;;;;7.60;5.60;;;;;;;-0.22;99.87;151315.81;5017680;28;20454;-87
2021/01/27 07:39:43;;;;;;;8.07;5.60;;;;;;;-0.20;100.00;151320.91;5002235;28;20417;-87
2021/01/27 07:42:23;;;;;;;6.20;4.30;;;;;;;-0.19;100.00;151323.50;4999920;28;20443;-87
2021/01/27 07:45:02;;;;;;;7.30;4.13;;;;;;;-0.16;100.00;151329.91;5006310;28;20529;-87
2021/01/27 07:47:46;;;;;;;5.80;4.20;;;;;;;-0.16;100.00;151331.16;5001359;28;20451;-86
2021/01/27 07:50:23;;;;;;;5.23;4.20;;;;;;;-0.18;100.00;151326.03;5001089;28;20444;-87
2021/01/27 07:53:04;;;;;;;5.20;3.53;;;;;;;-0.16;100.00;151329.91;5015755;28;20444;-87
2021/01/27 07:55:47;;;;;;;4.50;4.00;;;;;;;-0.10;100.00;151345.28;5026335;28;20476;-86
2021/01/27 07:58:28;;;;;;;5.00;4.07;;;;;;;-0.16;100.00;151331.16;5038120;28;20472;-87
2021/01/27 08:01:06;;;;;;;5.07;4.27;;;;;;;-0.15;100.00;151333.75;5070704;28;20433;-87
2021/01/27 08:03:54;;;;;;;7.80;4.37;;;;;;;-0.13;100.00;151338.88;5037955;28;20845;-87
2021/01/27 08:06:30;;;;;;;5.30;3.83;;;;;;;-0.13;100.00;151338.88;5053153;28;20450;-87
2021/01/27 08:09:06;;;;;;;4.90;3.70;;;;;;;-0.16;100.00;151329.91;5037780;28;20466;-87
2021/01/27 08:11:43;;;;;;;6.27;3.90;;;;;;;-0.15;100.00;151333.75;5053600;28;20546;-87
2021/01/27 08:14:58;;;;;;;3.63;3.33;;;;;;;-0.16;100.00;151331.16;5037806;28;20426;-87
2021/01/27 08:17:48;;;;;;;5.27;4.07;;;;;;;-0.17;100.00;151327.34;5052835;28;20474;-86
2021/01/27 08:20:26;;;;;;;5.00;3.43;;;;;;;-0.16;100.00;151331.16;5036464;28;20447;-86
2021/01/27 08:23:04;;;;;;;4.37;3.90;;;;;;;-0.11;100.00;151344.00;5032066;28;20881;-87
2021/01/27 08:25:55;;;;;;;3.73;3.30;;;;;;;-0.12;100.00;151341.44;5049176;28;20529;-87
2021/01/27 08:28:48;;;;;;;4.83;4.13;;;;;;;-0.14;100.00;151336.34;5048062;28;20831;-87
2021/01/27 08:31:24;;;;;;;5.60;4.50;;;;;;;-0.09;100.00;151347.88;5037823;28;20442;-86
2021/01/27 08:34:00;;;;;;;4.57;3.90;;;;;;;-0.10;100.00;151346.56;5029921;28;20443;-87
2021/01/27 08:37:01;;;;;;;6.77;5.20;;;;;;;-0.10;100.00;151346.56;5043673;28;20459;-87
2021/01/27 08:39:37;;;;;;;4.80;3.63;;;;;;;-0.09;100.00;151347.88;5052178;28;20471;-87
2021/01/27 08:42:34;;;;;;;9.40;4.30;;;;;;;-0.09;100.00;151349.16;5031235;28;20451;-87
2021/01/27 08:45:20;;;;;;;4.90;3.87;;;;;;;-0.05;100.00;151359.41;5047347;28;20452;-87
2021/01/27 08:47:58;;;;;;;6.50;4.30;;;;;;;-0.08;100.00;151350.44;5053001;28;20447;-87
2021/01/27 08:50:42;;;;;;;5.37;3.83;;;;;;;-0.08;100.00;151351.69;5036005;28;20448;-87
2021/01/27 08:53:19;;;;;;;3.97;3.57;;;;;;;-0.04;100.00;151361.97;5051875;28;21019;-86
2021/01/27 08:55:57;;;;;;;4.70;3.73;;;;;;;-0.02;100.00;151367.09;5036560;28;20862;-86
2021/01/27 08:58:37;;;;;;;5.00;3.90;;;;;;;-0.07;100.00;151354.28;5051223;28;20560;-86
2021/01/27 09:01:51;;;;;;;4.77;3.40;;;;;;;-0.05;100.00;151359.41;5051601;28;20588;-87
2021/01/27 09:04:37;;;;;;;4.80;3.77;;;;;;;-0.04;100.00;151360.69;5032459;28;20434;-86
2021/01/27 09:07:13;;;;;;;6.87;3.67;;;;;;;-0.02;100.00;151367.09;5024981;28;20446;-86
2021/01/27 09:09:48;;;;;;;4.13;3.57;;;;;;;0.00;100.00;151370.97;5037023;28;20925;-86
2021/01/27 09:12:27;;;;;;;6.10;4.60;;;;;;;-0.04;100.00;151361.97;5035775;28;20798;-86
2021/01/27 09:15:04;;;;;;;11.23;4.90;;;;;;;-0.03;100.00;151363.28;5036961;28;20784;-86
2021/01/27 09:17:39;;;;;;;4.70;4.10;;;;;;;-0.04;100.00;151361.97;5050934;28;20470;-85
2021/01/27 09:20:21;;;;;;;7.13;4.73;;;;;;;-0.05;100.00;151358.09;5037048;28;20434;-85
2021/01/27 09:23:01;;;;;;;7.20;5.27;;;;;;;-0.11;100.00;151342.75;5035171;28;20989;-85
2021/01/27 09:25:44;;;;;;;4.70;4.20;;;;;;;-0.03;100.00;151364.53;5036444;28;21471;-85
2021/01/27 09:28:23;;;;;;;6.00;4.30;;;;;;;-0.10;100.00;151346.56;5042438;28;20529;-85
2021/01/27 09:30:59;;;;;;;5.57;4.33;;;;;;;-0.09;100.00;151349.16;5052236;28;20503;-88
2021/01/27 09:33:34;;;;;;;5.93;4.40;;;;;;;-0.13;100.00;151338.88;5036166;28;20441;-85
2021/01/27 09:36:14;;;;;;;6.70;4.93;;;;;;;-0.14;100.00;151336.34;5036265;28;20472;-86
2021/01/27 09:38:50;;;;;;;6.97;4.97;;;;;;;-0.15;100.00;151333.75;5020116;28;20480;-86
2021/01/27 09:41:28;;;;;;;4.40;4.00;;;;;;;-0.20;100.00;151320.91;5036754;28;20462;-86
2021/01/27 09:44:04;;;;;;;5.17;4.37;;;;;;;-0.15;100.00;151333.75;5036024;28;20482;-86
2021/01/27 09:46:40;;;;;;;7.00;4.73;;;;;;;-0.14;100.00;151336.34;5051836;28;20448;-88
2021/01/27 09:49:17;;;;;;;5.10;4.60;;;;;;;-0.16;100.00;151331.16;5036897;28;20435;-87
2021/01/27 09:51:54;;;;;;;4.60;4.07;;;;;;;-0.18;100.00;151326.03;5036446;28;20885;-86
2021/01/27 09:54:30;;;;;;;5.07;3.73;;;;;;;-0.12;100.00;151340.16;5036208;28;20478;-86
2021/01/27 09:57:06;;;;;;;8.90;4.03;;;;;;;-0.10;100.00;151346.56;5036765;28;21232;-86
2021/01/27 09:59:42;;;;;;;5.10;3.53;;;;;;;-0.03;100.00;151364.53;5027964;28;20465;-86
2021/01/27 10:02:26;;;;;;;4.30;3.90;;;;;;;0.00;100.00;151372.22;5039390;28;21082;-86
2021/01/27 10:05:03;;;;;;;5.20;3.57;;;;;;;-0.05;100.00;151359.41;5021898;28;20439;-86
2021/01/27 10:07:40;;;;;;;7.20;3.00;;;;;;;-0.16;100.00;151331.16;5059831;28;20545;-89
2021/01/27 10:10:18;;;;;;;6.00;4.07;;;;;;;-0.24;100.00;151310.63;5036412;28;20437;-89
2021/01/27 10:12:56;;;;;;;6.47;3.53;;;;;;;-0.20;100.00;151319.63;5051597;28;20452;-89
2021/01/27 10:15:34;;;;;;;6.50;3.70;;;;;;;-0.19;100.00;151323.50;5036076;28;20448;-87
2021/01/27 10:18:12;;;;;;;4.37;3.23;;;;;;;-0.16;100.00;151329.91;5036312;28;20497;-87
2021/01/27 10:20:48;;;;;;;4.20;2.90;;;;;;;-0.19;100.00;151322.22;5036312;28;20448;-88
2021/01/27 10:23:36;;;;;;;3.97;3.03;;;;;;;-0.24;100.00;151310.63;5051673;28;20594;-88
2021/01/27 10:26:23;;;;;;;3.27;2.97;;;;;;;-0.17;100.00;151328.63;5036465;28;20454;-86
2021/01/27 10:29:32;;;;;;;4.43;3.00;;;;;;;-0.17;100.00;151328.63;5036507;28;20441;-88
2021/01/27 10:32:33;;;;;;;3.03;2.50;;;;;;;-0.17;100.00;151328.63;5036252;28;20461;-88
2021/01/27 10:35:30;;;;;;;3.60;3.17;;;;;;;-0.15;100.00;151332.47;5051690;28;20846;-88
2021/01/27 10:38:17;;;;;;;6.00;3.20;;;;;;;-0.14;100.00;151335.03;5036190;28;20498;-88
2021/01/27 10:41:22;;;;;;;3.70;2.97;;;;;;;-0.10;100.00;151345.28;5036291;28;20446;-88
2021/01/27 10:44:19;;;;;;;3.43;3.03;;;;;;;-0.14;100.00;151336.34;5035919;28;20465;-88
2021/01/27 10:46:58;;;;;;;4.50;3.30;;;;;;;0.03;100.00;151377.41;5036329;28;20443;-88
2021/01/27 10:49:37;;;;;;;4.00;3.00;;;;;;;-0.04;100.00;151361.97;5039367;28;20438;-88
2021/01/27 10:52:17;;;;;;;6.20;3.60;;;;;;;-0.04;100.00;151361.97;5039892;28;20434;-88
2021/01/27 10:54:53;;;;;;;3.73;2.83;;;;;;;0.08;100.00;151390.22;5039485;28;20508;-88
2021/01/27 10:57:30;;;;;;;5.57;3.90;;;;;;;0.03;100.00;151377.41;5039689;28;20470;-88
2021/01/27 11:00:07;;;;;;;6.10;4.00;;;;;;;-0.03;100.00;151364.53;5035121;28;20439;-89
2021/01/27 11:02:43;;;;;;;6.60;4.27;;;;;;;-0.03;100.00;151364.53;5046336;28;20447;-89
2021/01/27 11:05:19;;;;;;;4.77;3.47;;;;;;;0.04;100.00;151379.94;5050732;28;20825;-87
2021/01/27 11:07:55;;;;;;;4.30;3.60;;;;;;;-0.02;100.00;151367.09;5048118;28;20523;-89
2021/01/27 11:10:31;;;;;;;5.23;3.90;;;;;;;0.01;100.00;151373.53;5051695;28;20433;-89
2021/01/27 11:13:08;;;;;;;4.73;4.30;;;;;;;0.15;100.00;151408.19;5044503;28;20501;-88
2021/01/27 11:15:43;;;;;;;4.47;3.57;;;;;;;0.12;100.00;151401.75;5034985;28;20806;-86
2021/01/27 11:18:18;;;;;;;4.97;3.87;;;;;;;0.20;100.00;151421.00;5050779;28;20544;-86
2021/01/27 11:20:54;;;;;;;4.60;4.10;;;;;;;0.25;100.00;151435.13;5027330;28;20455;-86
2021/01/27 11:23:30;;;;;;;6.67;4.50;;;;;;;0.24;100.00;151431.28;5056013;28;21010;-86
2021/01/27 11:26:05;;;;;;;4.90;4.00;;;;;;;0.25;100.00;151433.84;5048958;28;20451;-85
2021/01/27 11:28:43;;;;;;;5.97;4.00;;;;;;;0.20;100.00;151421.00;5053615;28;20949;-86
2021/01/27 11:31:19;;;;;;;3.90;3.57;;;;;;;0.19;100.00;151418.41;5040459;28;20459;-87
2021/01/27 11:33:56;;;;;;;5.43;4.27;;;;;;;0.22;100.00;151426.13;5051672;28;20489;-86
2021/01/27 11:36:32;;;;;;;3.83;3.17;;;;;;;0.28;100.00;151441.53;5053633;28;20438;-87
2021/01/27 11:39:11;;;;;;;4.30;3.17;;;;;;;0.30;100.00;151446.66;5103530;22;20459;-87
2021/01/27 11:41:47;;;;;;;5.57;3.93;;;;;;;0.35;100.00;151459.50;5055939;28;20509;-87
2021/01/27 11:44:27;;;;;;;3.80;3.13;;;;;;;0.40;100.00;151472.31;5077086;28;20449;-88
2021/01/27 11:47:02;;;;;;;5.60;3.50;;;;;;;0.45;100.00;151486.44;5067649;28;20444;-87
2021/01/27 11:49:39;;;;;;;3.80;3.10;;;;;;;0.44;100.00;151482.63;5052757;28;20539;-86
2021/01/27 11:52:16;;;;;;;4.67;3.50;;;;;;;0.38;100.00;151467.19;5056153;28;20442;-89
2021/01/27 11:54:51;;;;;;;4.43;3.10;;;;;;;0.48;100.00;151492.88;5077657;22;20496;-88
2021/01/27 11:57:27;;;;;;;3.80;3.13;;;;;;;0.49;100.00;151495.44;5068076;28;20456;-88
2021/01/27 12:00:05;;;;;;;5.17;3.27;;;;;;;0.51;100.00;151500.56;5057117;28;20815;-87
2021/01/27 12:02:41;;;;;;;3.50;2.77;;;;;;;0.60;100.00;151523.72;5078261;28;20441;-88
2021/01/27 12:05:18;;;;;;;4.10;3.53;;;;;;;0.58;100.00;151518.59;5066019;28;20464;-87
2021/01/27 12:07:57;;;;;;;3.50;2.70;;;;;;;0.60;100.00;151523.72;5095490;28;20438;-88
2021/01/27 12:10:32;;;;;;;5.70;3.63;;;;;;;0.60;100.00;151523.72;5059383;28;20458;-87
2021/01/27 12:13:11;;;;;;;10.43;3.70;;;;;;;0.62;100.00;151528.81;5061995;28;20466;-87
2021/01/27 12:15:48;;;;;;;5.90;3.73;;;;;;;0.65;100.00;151535.25;5070331;28;20978;-88
2021/01/27 12:18:24;;;;;;;2.67;2.40;;;;;;;0.59;100.00;151521.13;5068307;28;20547;-88
2021/01/27 12:20:59;;;;;;;2.83;2.53;;;;;;;0.66;100.00;151539.13;5071542;28;20582;-89